DW5274 Weather Reports


Display with metric or nautical units.
time (UTC)temp
F
wind
direction
speed
MPH
gust
MPH
rain 1hr
in
rain 24hr
in
rain mn
in
humidity
%
barometer
mb
20240523083007 42 315 0.0 0.0 0.00 0.00 0.00 78 1014.9
20240523081506 42 315 0.0 0.0 0.00 0.00 0.00 78 1014.7
20240523080046 42 315 0.0 0.0 0.00 0.00 0.00 78 1014.7
20240523074547 42 315 0.0 0.0 0.00 0.00 0.00 77 1014.5
20240523073026 42 315 0.0 0.0 0.00 0.00 0.00 76 1014.5
20240523071525 42 315 0.0 0.0 0.00 0.00 0.00 75 1014.4
20240523070006 42 310 0.0 0.0 0.00 0.00 0.00 75 1014.2
20240523064504 42 310 0.0 0.0 0.00 0.00 0.00 76 1014.0
20240523063105 42 310 0.0 0.0 0.00 0.00 0.00 75 1013.9
20240523061547 42 310 0.0 0.0 0.00 0.00 0.00 75 1013.9
20240523060043 42 310 0.0 0.0 0.00 0.00 0.00 76 1013.9
20240523054525 43 310 0.0 0.0 0.00 0.00 0.00 76 1013.9
20240523053022 43 310 0.0 0.0 0.00 0.00 0.00 76 1013.6
20240523051509 43 310 0.0 0.0 0.00 0.00 0.00 75 1013.6
20240523050006 44 310 0.0 0.0 0.00 0.00 0.00 73 1013.4
20240523044508 44 310 0.0 0.0 0.00 0.00 0.00 70 1013.3
20240523043117 45 310 0.0 0.0 0.00 0.00 0.00 72 1013.1
20240523041558 46 308 0.0 0.0 0.00 0.00 0.00 67 1012.9
20240523040058 46 309 0.0 0.0 0.00 0.00 0.00 65 1012.6
20240523034552 47 309 0.0 0.0 0.00 0.00 0.00 64 1012.4
20240523033049 48 306 4.0 0.0 0.00 0.00 0.00 61 1012.2
20240523031528 49 334 4.0 0.0 0.00 0.00 0.00 59 1012.0
20240523030034 49 329 4.0 0.0 0.00 0.00 0.00 58 1011.7
20240523024507 49 318 4.0 0.0 0.00 0.00 0.00 61 1011.5
20240523023006 48 35 0.0 0.0 0.00 0.00 0.00 64 1011.4
20240523021559 48 36 0.0 0.0 0.00 0.00 0.00 63 1010.8
20240523020139 48 38 0.0 0.0 0.00 0.00 0.00 63 1010.4
20240523014524 49 38 0.0 0.0 0.00 0.00 0.00 61 1010.2
20240523013021 50 49 5.0 0.0 0.00 0.00 0.00 60 1009.8
20240523011503 50 38 4.0 0.0 0.00 0.00 0.00 59 1009.6
20240523010002 50 33 7.0 0.0 0.00 0.00 0.00 61 1009.7
20240523004546 53 5 4.0 0.0 0.00 0.00 0.00 54 1009.2
20240523003044 53 5 3.0 0.0 0.00 0.00 0.00 51 1008.6
20240523001544 52 344 4.0 0.0 0.00 0.00 0.00 52 1008.4
20240523000056 55 344 6.0 0.0 0.00 0.00 0.00 50 1008.3
20240522234550 56 350 5.0 0.0 0.00 0.00 0.00 48 1008.2
20240522233053 56 349 3.0 0.0 0.00 0.00 0.00 52 1008.1
20240522231542 56 41 3.0 0.0 0.00 0.00 0.00 55 1008.3
20240522230041 52 56 6.0 0.0 0.00 0.00 0.00 64 1007.5
20240522224539 51 331 5.0 0.0 0.00 0.00 0.00 64 1008.4
20240522223037 54 340 4.0 0.0 0.00 0.00 0.00 57 1008.4
20240522221518 56 30 4.0 0.0 0.00 0.00 0.00 53 1007.9
20240522220022 55 344 5.0 0.0 0.00 0.00 0.00 59 1008.0
20240522214602 51 21 6.0 0.0 0.00 0.00 0.00 65 1008.2
20240522213103 51 336 6.0 0.0 0.00 0.00 0.00 63 1008.3
20240522211546 54 332 5.0 0.0 0.00 0.00 0.00 58 1008.8
20240522210034 57 17 6.0 0.0 0.00 0.00 0.00 52 1007.7
20240522204515 56 36 5.0 0.0 0.00 0.00 0.00 54 1007.3
20240522203019 58 348 5.0 0.0 0.00 0.00 0.00 56 1007.4
20240522201555 55 15 6.0 0.0 0.00 0.00 0.00 60 1007.3
20240522200057 55 343 6.0 0.0 0.00 0.00 0.00 61 1006.7
20240522194536 52 343 10.0 0.0 0.00 0.00 0.00 62 1007.0
20240522193045 55 333 12.0 0.0 0.00 0.00 0.00 59 1007.2
20240522191510 58 12 12.0 0.0 0.00 0.00 0.00 54 1006.2
20240522190007 62 286 8.0 0.0 0.00 0.00 0.00 46 1005.5
20240522184547 62 288 8.0 0.0 0.00 0.00 0.00 46 1005.5
20240522183044 61 265 7.0 0.0 0.00 0.00 0.00 51 1005.5
20240522181523 61 246 7.0 0.0 0.00 0.00 0.00 56 1005.7
20240522180020 60 232 5.0 0.0 0.00 0.00 0.00 57 1005.8
20240522174618 58 259 3.0 0.0 0.00 0.00 0.00 60 1006.0
20240522173057 58 320 5.0 0.0 0.00 0.00 0.28 58 1006.1
20240522171541 59 257 3.0 0.0 0.00 0.00 0.28 60 1006.3
20240522170037 59 247 5.0 0.0 0.00 0.00 0.28 61 1006.4
20240522164520 58 217 5.0 0.0 0.00 0.00 0.28 65 1006.6
20240522163020 57 296 4.0 0.0 0.00 0.00 0.28 65 1006.9
20240522161558 57 248 6.0 0.0 0.00 0.00 0.28 67 1007.1
20240522160057 57 244 6.0 0.0 0.00 0.00 0.28 71 1007.2
20240522154539 56 215 1.0 0.0 0.00 0.00 0.28 75 1007.2
20240522153037 56 182 0.0 0.0 0.00 0.00 0.28 81 1007.3
20240522151520 55 146 0.0 0.0 0.00 0.00 0.28 88 1007.6
20240522150023 53 147 0.0 0.0 0.00 0.00 0.28 90 1007.8
20240522144600 53 138 0.0 0.0 0.00 0.00 0.28 91 1007.7
20240522143059 52 128 0.0 0.0 0.00 0.00 0.28 92 1007.8
20240522141539 51 126 0.0 0.0 0.00 0.00 0.28 92 1008.0
20240522140042 51 114 0.0 0.0 0.00 0.00 0.28 93 1007.9
20240522134536 50 113 0.0 0.0 0.00 0.00 0.28 93 1007.9
20240522133021 50 113 0.0 0.0 0.00 0.00 0.28 93 1008.1
20240522131502 49 96 0.0 0.0 0.00 0.00 0.28 92 1008.2
20240522130102 50 93 0.0 0.0 0.00 0.00 0.28 92 1008.4
20240522124542 50 92 0.0 0.0 0.00 0.00 0.28 92 1008.3
20240522123059 50 92 0.0 0.0 0.00 0.00 0.28 92 1008.3
20240522121523 50 92 0.0 0.0 0.00 0.00 0.28 92 1008.5
20240522120022 50 92 0.0 0.0 0.00 0.00 0.28 92 1008.5
20240522114503 50 92 0.0 0.0 0.00 0.00 0.28 91 1008.6
20240522113002 50 92 0.0 0.0 0.00 0.00 0.28 92 1008.9
20240522111551 50 92 0.0 0.0 0.00 0.00 0.27 91 1009.1
20240522110043 51 92 0.0 0.0 0.00 0.00 0.26 91 1009.1
20240522104528 51 343 0.0 0.0 0.00 0.00 0.25 91 1009.4
20240522103019 51 340 0.0 0.0 0.00 0.00 0.23 91 1009.7
20240522101602 51 340 0.0 0.0 0.00 0.00 0.22 90 1009.9
20240522100059 51 340 0.0 0.0 0.00 0.00 0.20 90 1010.1
20240522094546 51 340 0.0 0.0 0.00 0.00 0.17 89 1010.4
20240522093039 51 340 0.0 0.0 0.00 0.00 0.12 92 1010.5
20240522091519 52 340 0.0 0.0 0.00 0.00 0.08 88 1010.3
20240522090022 52 340 0.0 0.0 0.00 0.00 0.03 87 1010.4
20240522084616 52 340 0.0 0.0 0.00 0.00 0.01 86 1010.7
20240522083111 52 339 0.0 0.0 0.00 0.00 0.00 85 1010.9